createdAt,value
2022-09-21T00:00:13.687Z,1.25
2022-09-21T00:01:26.719Z,0.88
2022-09-21T00:02:38.285Z,1.25
2022-09-21T00:03:57.349Z,0.88
2022-09-21T00:05:09.714Z,1.20
2022-09-21T00:06:21.951Z,1.15
2022-09-21T00:07:33.375Z,0.88
2022-09-21T00:08:45.909Z,0.88
2022-09-21T00:09:57.357Z,1.15
2022-09-21T00:11:11.479Z,0.90
2022-09-21T00:12:23.707Z,1.30
2022-09-21T00:13:37.367Z,0.80
2022-09-21T00:14:48.803Z,1.08
2022-09-21T00:16:00.469Z,1.25
2022-09-21T00:17:11.884Z,0.98
2022-09-21T00:18:23.653Z,1.33
2022-09-21T00:19:35.248Z,0.90
2022-09-21T00:20:46.765Z,0.80
2022-09-21T00:21:58.265Z,0.88
2022-09-21T00:23:10.058Z,0.82
2022-09-21T00:24:21.497Z,1.13
2022-09-21T00:25:32.945Z,0.68
2022-09-21T00:26:44.367Z,1.20
2022-09-21T00:27:55.916Z,1.30
2022-09-21T00:29:08.033Z,1.40
2022-09-21T00:30:19.489Z,1.10
2022-09-21T00:31:31.541Z,1.10
2022-09-21T00:32:43.054Z,1.40
2022-09-21T00:33:54.738Z,1.02
2022-09-21T00:35:09.674Z,0.95
2022-09-21T00:36:22.327Z,1.13
2022-09-21T00:37:34.297Z,1.17
2022-09-21T00:38:49.141Z,1.00
2022-09-21T00:40:00.598Z,1.27
2022-09-21T00:41:12.321Z,1.00
2022-09-21T00:42:33.909Z,1.00
2022-09-21T00:43:47.324Z,1.02
2022-09-21T00:44:59.065Z,0.77
2022-09-21T00:46:17.365Z,1.15
2022-09-21T00:47:40.290Z,1.20
2022-09-21T00:48:51.785Z,1.08
2022-09-21T00:50:05.999Z,1.13
2022-09-21T00:51:17.849Z,0.95
2022-09-21T00:52:32.173Z,0.90
2022-09-21T00:53:43.980Z,1.00
2022-09-21T00:54:57.714Z,1.20
2022-09-21T00:56:11.004Z,0.90
2022-09-21T00:57:24.439Z,1.27
2022-09-21T00:58:40.751Z,1.00
2022-09-21T00:59:54.148Z,1.15
2022-09-21T01:01:05.739Z,1.05
2022-09-21T01:02:17.968Z,1.30
2022-09-21T01:03:30.620Z,1.15
2022-09-21T01:04:42.095Z,1.25
2022-09-21T01:05:53.529Z,1.10
2022-09-21T01:07:12.399Z,1.05
2022-09-21T01:08:26.034Z,0.80
2022-09-21T01:09:37.537Z,1.17
2022-09-21T01:11:03.479Z,1.08
2022-09-21T01:12:21.325Z,1.00
2022-09-21T01:13:49.052Z,1.07
2022-09-21T01:15:00.458Z,1.27
2022-09-21T01:16:15.294Z,1.27
2022-09-21T01:17:45.197Z,1.30
2022-09-21T01:19:15.398Z,1.05
2022-09-21T01:20:32.814Z,1.27
2022-09-21T01:22:03.582Z,1.00
2022-09-21T01:23:15.089Z,1.00
2022-09-21T01:24:39.879Z,1.35
2022-09-21T01:25:54.353Z,1.17
2022-09-21T01:27:24.796Z,1.40
2022-09-21T01:28:48.499Z,1.40
2022-09-21T01:30:02.506Z,1.33
2022-09-21T01:31:17.262Z,1.30
2022-09-21T01:32:37.676Z,0.90
2022-09-21T01:33:52.290Z,1.08
2022-09-21T01:35:12.868Z,1.45
2022-09-21T01:36:26.198Z,1.17
2022-09-21T01:37:40.667Z,1.30
2022-09-21T01:38:58.481Z,1.25
2022-09-21T01:40:13.154Z,1.63
2022-09-21T01:41:27.409Z,1.77
2022-09-21T01:42:44.304Z,1.90
2022-09-21T01:44:03.338Z,1.35
2022-09-21T01:45:17.257Z,1.35
2022-09-21T01:46:30.610Z,1.50
2022-09-21T01:47:43.693Z,1.35
2022-09-21T01:48:58.600Z,1.30
2022-09-21T01:50:11.951Z,0.82
2022-09-21T01:51:26.978Z,1.20
2022-09-21T01:52:51.704Z,1.17
2022-09-21T01:54:07.144Z,1.40
2022-09-21T01:55:53.814Z,1.27
2022-09-21T01:57:14.891Z,1.08
2022-09-21T01:58:35.178Z,1.10
2022-09-21T01:59:49.904Z,0.73
2022-09-21T02:01:01.754Z,1.23
2022-09-21T02:02:29.690Z,1.20
2022-09-21T02:03:52.158Z,1.30
2022-09-21T02:05:04.288Z,1.55
2022-09-21T02:06:16.947Z,1.50
2022-09-21T02:07:28.458Z,1.30
2022-09-21T02:08:39.925Z,1.30
2022-09-21T02:09:51.846Z,1.25
2022-09-21T02:11:04.603Z,1.10
2022-09-21T02:12:19.169Z,1.40
2022-09-21T02:13:32.309Z,1.05
2022-09-21T02:14:43.944Z,1.27
2022-09-21T02:15:55.408Z,1.80
2022-09-21T02:17:10.358Z,1.92
2022-09-21T02:18:31.143Z,1.30
2022-09-21T02:19:48.566Z,1.35
2022-09-21T02:21:01.695Z,1.20
2022-09-21T02:22:13.129Z,1.25
2022-09-21T02:23:27.838Z,1.20
2022-09-21T02:24:59.509Z,1.45
2022-09-21T02:26:16.966Z,1.50
2022-09-21T02:27:34.064Z,1.30
2022-09-21T02:28:45.487Z,1.45
2022-09-21T02:30:17.469Z,2.15
2022-09-21T02:31:49.822Z,1.90
2022-09-21T02:33:17.882Z,1.17
2022-09-21T02:34:34.712Z,1.10
2022-09-21T02:36:12.844Z,1.80
2022-09-21T02:38:00.215Z,1.10
2022-09-21T02:39:17.079Z,1.15
2022-09-21T02:40:35.301Z,1.35
2022-09-21T02:41:49.498Z,1.40
2022-09-21T02:43:06.091Z,1.38
2022-09-21T02:44:18.180Z,1.30
2022-09-21T02:45:35.422Z,1.48
2022-09-21T02:46:49.742Z,1.17
2022-09-21T02:48:05.886Z,1.20
2022-09-21T02:49:19.941Z,0.90
2022-09-21T02:50:35.248Z,0.80
2022-09-21T02:51:48.427Z,1.10
2022-09-21T02:53:00.955Z,0.80
2022-09-21T02:54:14.004Z,1.15
2022-09-21T02:55:25.894Z,0.98
2022-09-21T02:56:38.083Z,1.92
2022-09-21T02:57:50.058Z,1.20
2022-09-21T02:59:03.274Z,1.17
2022-09-21T03:00:15.578Z,1.13
2022-09-21T03:01:27.295Z,1.10
2022-09-21T03:02:39.728Z,1.15
2022-09-21T03:03:51.350Z,1.20
2022-09-21T03:05:02.806Z,1.35
2022-09-21T03:06:14.258Z,1.45
2022-09-21T03:07:25.684Z,1.25
2022-09-21T03:08:37.119Z,0.88
2022-09-21T03:09:48.760Z,1.10
2022-09-21T03:11:00.945Z,1.00
2022-09-21T03:12:12.386Z,1.42
2022-09-21T03:13:24.172Z,0.90
2022-09-21T03:14:35.585Z,1.13
2022-09-21T03:15:47.336Z,1.23
2022-09-21T03:16:59.206Z,1.00
2022-09-21T03:18:11.389Z,1.15
2022-09-21T03:19:22.815Z,1.02
2022-09-21T03:20:34.751Z,1.30
2022-09-21T03:21:46.181Z,1.55
2022-09-21T03:22:57.653Z,1.77
2022-09-21T03:24:09.099Z,1.30
2022-09-21T03:25:20.565Z,1.33
2022-09-21T03:26:32.327Z,1.02
2022-09-21T03:27:43.740Z,1.38
2022-09-21T03:28:55.287Z,1.73
2022-09-21T03:30:06.913Z,1.13
2022-09-21T03:31:18.454Z,1.30
2022-09-21T03:32:29.913Z,1.45
2022-09-21T03:33:41.334Z,1.40
2022-09-21T03:34:52.782Z,1.30
2022-09-21T03:36:04.298Z,1.55
2022-09-21T03:37:16.086Z,1.45
2022-09-21T03:38:27.560Z,1.50
2022-09-21T03:39:38.987Z,1.50
2022-09-21T03:40:50.495Z,1.95
2022-09-21T03:42:02.649Z,1.60
2022-09-21T03:43:14.226Z,1.40
2022-09-21T03:44:26.842Z,1.50
2022-09-21T03:45:40.996Z,1.55
2022-09-21T03:46:52.910Z,1.50
2022-09-21T03:48:04.441Z,1.33
2022-09-21T03:49:16.119Z,1.17
2022-09-21T03:50:28.757Z,1.67
2022-09-21T03:51:40.615Z,1.27
2022-09-21T03:52:52.050Z,1.90
2022-09-21T03:54:03.508Z,1.33
2022-09-21T03:55:14.962Z,1.30
2022-09-21T03:56:26.402Z,1.20
2022-09-21T03:57:38.530Z,1.50
2022-09-21T03:58:50.301Z,1.90
2022-09-21T04:00:06.582Z,1.40
2022-09-21T04:01:18.101Z,1.80
2022-09-21T04:02:30.159Z,1.52
2022-09-21T04:03:41.609Z,1.58
2022-09-21T04:04:53.041Z,1.23
2022-09-21T04:06:10.992Z,1.52
2022-09-21T04:07:22.581Z,1.70
2022-09-21T04:08:34.014Z,1.25
2022-09-21T04:09:45.482Z,1.48
2022-09-21T04:10:56.958Z,1.42
2022-09-21T04:12:08.416Z,1.30
2022-09-21T04:13:19.844Z,1.50
2022-09-21T04:14:31.576Z,1.92
2022-09-21T04:15:43.037Z,1.92
2022-09-21T04:16:54.565Z,1.83
2022-09-21T04:18:06.102Z,1.63
2022-09-21T04:19:18.065Z,1.38
2022-09-21T04:20:29.791Z,1.42
2022-09-21T04:21:41.257Z,1.40
2022-09-21T04:22:52.928Z,1.23
2022-09-21T04:24:04.502Z,1.52
2022-09-21T04:25:16.176Z,1.38
2022-09-21T04:26:32.722Z,1.20
2022-09-21T04:27:44.224Z,1.67
2022-09-21T04:28:56.093Z,1.10
2022-09-21T04:30:08.493Z,1.30
2022-09-21T04:31:20.009Z,1.05
2022-09-21T04:32:31.695Z,1.35
2022-09-21T04:33:43.158Z,1.60
2022-09-21T04:34:54.569Z,1.40
2022-09-21T04:36:06.521Z,1.67
2022-09-21T04:37:18.646Z,1.58
2022-09-21T04:38:31.292Z,1.63
2022-09-21T04:39:42.738Z,1.63
2022-09-21T04:40:55.128Z,1.70
2022-09-21T04:42:07.768Z,1.98
2022-09-21T04:43:22.569Z,3.53
2022-09-21T04:44:34.179Z,4.45
2022-09-21T04:45:45.603Z,8.85
2022-09-21T04:46:57.437Z,2.10
2022-09-21T04:48:08.886Z,3.10
2022-09-21T04:49:20.496Z,2.67
2022-09-21T04:50:31.937Z,2.08
2022-09-21T04:51:43.387Z,2.58
2022-09-21T04:52:54.995Z,1.95
2022-09-21T04:54:06.777Z,2.90
2022-09-21T04:55:18.273Z,2.65
2022-09-21T04:56:29.913Z,2.08
2022-09-21T04:57:41.438Z,1.20
2022-09-21T04:58:52.901Z,1.92
2022-09-21T05:00:05.626Z,2.50
2022-09-21T05:01:17.098Z,2.63
2022-09-21T05:02:28.735Z,2.30
2022-09-21T05:03:40.250Z,2.15
2022-09-21T05:04:51.706Z,2.42
2022-09-21T05:06:03.992Z,2.03
2022-09-21T05:07:15.844Z,2.75
2022-09-21T05:08:46.108Z,2.13
2022-09-21T05:10:03.620Z,2.25
2022-09-21T05:11:16.419Z,2.58
2022-09-21T05:12:27.850Z,2.30
2022-09-21T05:13:39.765Z,2.30
2022-09-21T05:14:51.216Z,2.08
2022-09-21T05:16:02.727Z,2.43
2022-09-21T05:17:14.209Z,3.25
2022-09-21T05:18:25.671Z,2.60
2022-09-21T05:19:37.138Z,2.33
2022-09-21T05:20:56.156Z,2.45
2022-09-21T05:22:07.576Z,2.08
2022-09-21T05:23:19.009Z,1.88
2022-09-21T05:24:30.453Z,2.50
2022-09-21T05:25:43.724Z,2.20
2022-09-21T05:26:55.161Z,2.15
2022-09-21T05:28:06.877Z,1.85
2022-09-21T05:29:18.512Z,2.22
2022-09-21T05:30:30.158Z,2.10
2022-09-21T05:32:02.121Z,2.10
2022-09-21T05:33:16.197Z,1.98
2022-09-21T05:34:44.644Z,1.80
2022-09-21T05:36:22.203Z,1.67
2022-09-21T05:37:36.452Z,1.58
2022-09-21T05:38:47.993Z,1.48
2022-09-21T05:39:59.582Z,1.60
2022-09-21T05:41:11.220Z,2.00
2022-09-21T05:42:22.828Z,2.00
2022-09-21T05:43:34.431Z,1.30
2022-09-21T05:44:46.033Z,1.80
2022-09-21T05:46:07.818Z,1.85
2022-09-21T05:47:31.181Z,1.58
2022-09-21T05:48:47.934Z,1.98
2022-09-21T05:50:17.746Z,1.40
2022-09-21T05:51:39.578Z,1.52
2022-09-21T05:53:11.239Z,1.37
2022-09-21T05:54:34.874Z,1.25
2022-09-21T05:55:49.356Z,2.77
2022-09-21T05:57:19.060Z,8.47
2022-09-21T05:58:47.109Z,10.20
2022-09-21T06:00:07.596Z,5.00
2022-09-21T06:01:29.950Z,3.03
2022-09-21T06:02:41.390Z,2.13
2022-09-21T06:03:52.940Z,1.97
2022-09-21T06:05:06.114Z,1.80
2022-09-21T06:06:18.309Z,1.67
2022-09-21T06:07:29.740Z,1.50
2022-09-21T06:08:41.199Z,2.13
2022-09-21T06:09:52.647Z,1.43
2022-09-21T06:11:04.131Z,1.63
2022-09-21T06:12:15.610Z,1.73
2022-09-21T06:13:27.203Z,1.87
2022-09-21T06:14:38.641Z,1.63
2022-09-21T06:15:50.240Z,1.80
2022-09-21T06:17:02.573Z,1.80
2022-09-21T06:18:17.743Z,1.57
2022-09-21T06:19:29.776Z,2.23
2022-09-21T06:20:41.260Z,2.00
2022-09-21T06:21:52.742Z,1.70
2022-09-21T06:23:05.085Z,2.03
2022-09-21T06:24:16.582Z,1.87
2022-09-21T06:25:28.093Z,1.77
2022-09-21T06:26:39.538Z,1.70
2022-09-21T06:27:50.993Z,1.90
2022-09-21T06:29:02.440Z,1.80
2022-09-21T06:30:13.945Z,2.20
2022-09-21T06:31:26.398Z,1.90
2022-09-21T06:32:37.901Z,2.10
2022-09-21T06:33:49.340Z,1.67
2022-09-21T06:35:00.790Z,2.20
2022-09-21T06:36:12.225Z,1.80
2022-09-21T06:37:23.690Z,1.60
2022-09-21T06:38:35.641Z,1.77
2022-09-21T06:39:47.134Z,1.70
2022-09-21T06:41:03.085Z,1.53
2022-09-21T06:42:14.625Z,1.90
2022-09-21T06:43:26.067Z,1.47
2022-09-21T06:44:37.489Z,1.80
2022-09-21T06:46:02.156Z,1.77
2022-09-21T06:47:13.658Z,1.80
2022-09-21T06:48:25.274Z,1.60
2022-09-21T06:49:41.739Z,1.77
2022-09-21T06:50:59.489Z,1.90
2022-09-21T06:52:11.018Z,1.70
2022-09-21T06:53:22.784Z,1.50
2022-09-21T06:54:34.463Z,1.70
2022-09-21T06:55:45.892Z,1.83
2022-09-21T06:57:00.064Z,1.60
2022-09-21T06:58:11.758Z,1.73
2022-09-21T06:59:23.211Z,1.43
2022-09-21T07:00:34.661Z,2.13
2022-09-21T07:01:46.152Z,1.90
2022-09-21T07:02:57.837Z,1.30
2022-09-21T07:04:09.518Z,1.90
2022-09-21T07:05:21.098Z,3.03
2022-09-21T07:06:32.517Z,1.70
2022-09-21T07:07:44.174Z,1.90
2022-09-21T07:10:27.589Z,2.00
2022-09-21T07:11:41.929Z,1.93
2022-09-21T07:12:53.383Z,2.00
2022-09-21T07:14:05.495Z,1.87
2022-09-21T07:15:17.048Z,2.03
2022-09-21T07:16:28.621Z,1.40
2022-09-21T07:17:40.179Z,2.23
2022-09-21T07:18:51.615Z,1.80
2022-09-21T07:20:04.091Z,2.20
2022-09-21T07:21:15.994Z,2.00
2022-09-21T07:22:31.083Z,2.47
2022-09-21T07:23:42.801Z,1.80
2022-09-21T07:24:54.764Z,2.53
2022-09-21T07:26:12.829Z,1.83
2022-09-21T07:27:25.285Z,1.70
2022-09-21T07:28:36.838Z,1.77
2022-09-21T07:29:48.268Z,1.70
2022-09-21T07:31:05.397Z,1.87
2022-09-21T07:32:17.048Z,2.07
2022-09-21T07:33:32.694Z,2.07
2022-09-21T07:34:46.758Z,2.23
2022-09-21T07:35:58.354Z,1.73
2022-09-21T07:37:09.773Z,1.83
2022-09-21T07:38:21.214Z,2.13
2022-09-21T07:39:32.670Z,2.23
2022-09-21T07:40:44.527Z,2.47
2022-09-21T07:41:58.292Z,2.40
2022-09-21T07:43:09.761Z,2.17
2022-09-21T07:44:22.621Z,2.50
2022-09-21T07:45:34.439Z,2.10
2022-09-21T07:46:48.349Z,1.87
2022-09-21T07:48:03.803Z,2.10
2022-09-21T07:49:15.336Z,1.90
2022-09-21T07:50:26.789Z,1.60
2022-09-21T07:51:38.234Z,1.70
2022-09-21T07:52:49.711Z,1.67
2022-09-21T07:54:01.156Z,1.80
2022-09-21T07:55:12.591Z,1.77
2022-09-21T07:56:24.778Z,1.97
2022-09-21T07:57:54.904Z,2.07
2022-09-21T07:59:06.382Z,2.00
2022-09-21T08:00:17.867Z,2.43
2022-09-21T08:01:30.119Z,2.10
2022-09-21T08:02:47.292Z,1.80
2022-09-21T08:03:59.180Z,1.60
2022-09-21T08:05:10.617Z,1.10
2022-09-21T08:06:22.799Z,1.83
2022-09-21T08:07:35.279Z,1.27
2022-09-21T08:08:48.051Z,1.30
2022-09-21T08:09:59.593Z,1.60
2022-09-21T08:11:11.895Z,1.97
2022-09-21T08:12:23.345Z,1.37
2022-09-21T08:13:34.780Z,2.20
2022-09-21T08:14:47.598Z,2.80
2022-09-21T08:15:59.847Z,2.77
2022-09-21T08:17:11.442Z,2.63
2022-09-21T08:18:23.052Z,2.80
2022-09-21T08:19:36.314Z,1.90
2022-09-21T08:20:52.962Z,2.00
2022-09-21T08:22:04.436Z,2.27
2022-09-21T08:23:17.193Z,1.50
2022-09-21T08:24:28.669Z,1.10
2022-09-21T08:25:40.189Z,1.20
2022-09-21T08:26:52.502Z,1.50
2022-09-21T08:28:08.838Z,1.50
2022-09-21T08:29:21.431Z,1.40
2022-09-21T08:30:34.016Z,1.23
2022-09-21T08:31:46.776Z,1.70
2022-09-21T08:32:58.406Z,1.20
2022-09-21T08:34:09.915Z,1.07
2022-09-21T08:35:21.361Z,1.30
2022-09-21T08:36:32.860Z,1.10
2022-09-21T08:37:44.576Z,1.50
2022-09-21T08:38:57.002Z,1.40
2022-09-21T08:40:10.448Z,1.33
2022-09-21T08:41:40.649Z,1.80
2022-09-21T08:42:58.084Z,1.70
2022-09-21T08:44:19.567Z,1.00
2022-09-21T08:45:35.809Z,1.10
2022-09-21T08:46:50.601Z,1.40
2022-09-21T08:48:04.660Z,1.00
2022-09-21T08:49:27.193Z,1.43
2022-09-21T08:50:44.362Z,1.20
2022-09-21T08:52:00.769Z,1.33
2022-09-21T08:53:14.825Z,1.53
2022-09-21T08:54:41.105Z,0.90
2022-09-21T08:55:55.555Z,1.40
2022-09-21T08:57:11.937Z,1.03
2022-09-21T08:58:27.156Z,1.30
2022-09-21T08:59:41.901Z,1.23
2022-09-21T09:01:07.264Z,1.13
2022-09-21T09:02:28.057Z,1.30
2022-09-21T09:04:04.984Z,1.90
2022-09-21T09:05:28.265Z,1.33
2022-09-21T09:06:58.001Z,1.50
2022-09-21T09:08:15.528Z,1.20
2022-09-21T09:09:45.354Z,1.33
2022-09-21T09:11:18.755Z,1.47
2022-09-21T09:12:36.392Z,1.10
2022-09-21T09:13:48.066Z,1.43
2022-09-21T09:15:14.933Z,1.17
2022-09-21T09:16:32.225Z,1.30
2022-09-21T09:17:43.694Z,1.70
2022-09-21T09:18:58.645Z,1.50
2022-09-21T09:20:42.595Z,1.37
2022-09-21T09:21:55.392Z,1.30
2022-09-21T09:23:10.631Z,1.33
2022-09-21T09:24:32.121Z,1.53
2022-09-21T09:25:44.677Z,1.20
2022-09-21T09:27:01.356Z,1.50
2022-09-21T09:28:21.842Z,1.57
2022-09-21T09:29:39.084Z,1.20
2022-09-21T09:30:57.684Z,1.43
2022-09-21T09:32:14.148Z,1.30
2022-09-21T09:33:28.230Z,1.03
2022-09-21T09:34:42.406Z,1.30
2022-09-21T09:35:59.793Z,1.10
2022-09-21T09:37:13.161Z,1.13
2022-09-21T09:38:27.915Z,1.23
2022-09-21T09:39:40.160Z,1.60
2022-09-21T09:41:06.549Z,2.10
2022-09-21T09:42:27.237Z,1.33
2022-09-21T09:43:49.008Z,1.20
2022-09-21T09:45:03.377Z,1.30
2022-09-21T09:46:14.893Z,1.10
2022-09-21T09:47:44.927Z,1.40
2022-09-21T09:49:09.066Z,0.80
2022-09-21T09:50:21.706Z,1.20
2022-09-21T09:51:39.879Z,1.30
2022-09-21T09:52:54.362Z,1.63
2022-09-21T09:54:10.093Z,1.57
2022-09-21T09:55:26.495Z,1.10
2022-09-21T09:56:38.002Z,1.40
2022-09-21T09:57:50.230Z,1.00
2022-09-21T09:59:07.020Z,1.10
2022-09-21T10:00:20.178Z,1.20
2022-09-21T10:01:38.124Z,1.37
2022-09-21T10:02:56.449Z,1.73
2022-09-21T10:04:09.521Z,1.03
2022-09-21T10:05:34.850Z,1.00
2022-09-21T10:06:47.106Z,1.00
2022-09-21T10:07:58.709Z,1.10
2022-09-21T10:09:22.199Z,1.10
2022-09-21T10:10:36.264Z,1.57
2022-09-21T10:11:48.491Z,3.13
2022-09-21T10:13:05.997Z,2.37
2022-09-21T10:14:20.778Z,4.50
2022-09-21T10:15:32.254Z,1.00
2022-09-21T10:16:43.991Z,1.30
2022-09-21T10:18:18.855Z,1.50
2022-09-21T10:19:31.052Z,1.90
2022-09-21T10:20:53.465Z,1.40
2022-09-21T10:22:05.331Z,1.40
2022-09-21T10:23:16.945Z,1.67
2022-09-21T10:24:30.654Z,1.60
2022-09-21T10:25:42.270Z,1.20
2022-09-21T10:26:56.176Z,1.27
2022-09-21T10:28:12.033Z,1.23
2022-09-21T10:29:23.434Z,1.30
2022-09-21T10:30:38.597Z,1.17
2022-09-21T10:31:57.565Z,1.00
2022-09-21T10:33:22.258Z,1.20
2022-09-21T10:34:34.635Z,1.37
2022-09-21T10:35:53.117Z,1.30
2022-09-21T10:37:23.237Z,1.47
2022-09-21T10:38:36.338Z,1.50
2022-09-21T10:39:47.797Z,1.00
2022-09-21T10:40:59.255Z,1.50
2022-09-21T10:42:16.418Z,1.87
2022-09-21T10:43:38.653Z,1.40
2022-09-21T10:45:03.767Z,1.10
2022-09-21T10:46:15.320Z,1.77
2022-09-21T10:47:34.375Z,1.90
2022-09-21T10:48:46.490Z,1.97
2022-09-21T10:50:00.389Z,1.97
2022-09-21T10:51:24.070Z,2.07
2022-09-21T10:52:40.615Z,2.10
2022-09-21T10:53:54.550Z,1.33
2022-09-21T10:55:06.896Z,1.23
2022-09-21T10:56:21.289Z,1.30
2022-09-21T10:57:33.715Z,1.03
2022-09-21T10:59:03.683Z,1.17
2022-09-21T11:00:24.283Z,1.20
2022-09-21T11:01:35.810Z,1.30
2022-09-21T11:02:48.673Z,1.60
2022-09-21T11:04:03.137Z,1.40
2022-09-21T11:05:15.945Z,1.10
2022-09-21T11:06:35.225Z,1.60
2022-09-21T11:07:58.787Z,1.77
2022-09-21T11:09:15.091Z,1.00
2022-09-21T11:10:28.830Z,1.80
2022-09-21T11:12:00.958Z,1.73
2022-09-21T11:13:18.648Z,2.00
2022-09-21T11:14:48.701Z,1.60
2022-09-21T11:16:22.016Z,1.60
2022-09-21T11:17:36.850Z,1.00
2022-09-21T11:19:20.542Z,1.20
2022-09-21T11:20:48.818Z,1.50
2022-09-21T11:22:00.250Z,1.20
2022-09-21T11:23:14.529Z,1.30
2022-09-21T11:24:32.234Z,1.20
2022-09-21T11:25:53.320Z,1.20
2022-09-21T11:27:25.626Z,1.00
2022-09-21T11:28:46.381Z,1.87
2022-09-21T11:30:11.786Z,1.70
2022-09-21T11:31:49.488Z,1.33
2022-09-21T11:33:00.975Z,1.20
2022-09-21T11:34:32.824Z,1.10
2022-09-21T11:35:53.006Z,0.73
2022-09-21T11:37:23.305Z,0.97
2022-09-21T11:38:43.123Z,1.00
2022-09-21T11:39:54.928Z,1.00
2022-09-21T11:41:16.554Z,1.27
2022-09-21T11:42:35.299Z,1.27
2022-09-21T11:43:56.046Z,0.83
2022-09-21T11:45:18.230Z,1.07
2022-09-21T11:46:30.279Z,1.10
2022-09-21T11:47:41.754Z,1.30
2022-09-21T11:49:02.444Z,1.03
2022-09-21T11:50:32.469Z,1.00
2022-09-21T11:51:43.911Z,0.90
2022-09-21T11:52:58.381Z,1.07
2022-09-21T11:54:20.404Z,0.97
2022-09-21T11:56:10.264Z,1.00
2022-09-21T11:57:25.370Z,1.10
2022-09-21T11:58:45.513Z,0.80
2022-09-21T12:00:02.608Z,1.27
2022-09-21T12:01:23.160Z,0.80
2022-09-21T12:02:37.627Z,1.00
2022-09-21T12:03:50.877Z,0.80
2022-09-21T12:05:16.536Z,1.00
2022-09-21T12:06:30.757Z,1.07
2022-09-21T12:07:56.325Z,1.00
2022-09-21T12:09:31.119Z,0.90
2022-09-21T12:10:49.553Z,1.00
2022-09-21T12:12:09.514Z,1.20
2022-09-21T12:13:32.519Z,0.97
2022-09-21T12:14:59.784Z,1.20
2022-09-21T12:16:17.107Z,0.90
2022-09-21T12:17:48.658Z,1.30
2022-09-21T12:19:18.698Z,0.70
2022-09-21T12:20:36.851Z,1.07
2022-09-21T12:21:50.627Z,0.97
2022-09-21T12:23:20.585Z,1.43
2022-09-21T12:24:36.235Z,0.83
2022-09-21T12:25:52.097Z,1.10
2022-09-21T12:27:20.552Z,0.90
2022-09-21T12:28:35.237Z,1.07
2022-09-21T12:29:50.507Z,1.07
2022-09-21T12:31:05.007Z,1.07
2022-09-21T12:32:25.479Z,1.10
2022-09-21T12:33:45.317Z,0.80
2022-09-21T12:35:04.574Z,1.00
2022-09-21T12:36:28.219Z,1.40
2022-09-21T12:37:47.615Z,1.17
2022-09-21T12:39:07.817Z,0.90
2022-09-21T12:40:32.892Z,1.17
2022-09-21T12:41:44.738Z,1.00
2022-09-21T12:43:01.913Z,1.30
2022-09-21T12:44:20.134Z,1.23
2022-09-21T12:45:31.567Z,1.10
2022-09-21T12:47:09.528Z,1.30
2022-09-21T12:48:40.366Z,1.50
2022-09-21T12:49:57.406Z,1.37
2022-09-21T12:51:16.085Z,1.13
2022-09-21T12:52:27.912Z,1.50
2022-09-21T12:53:43.227Z,1.47
2022-09-21T12:55:16.594Z,1.20
2022-09-21T12:56:28.796Z,1.00
2022-09-21T12:58:14.496Z,1.37
2022-09-21T12:59:50.182Z,1.20
2022-09-21T13:01:01.790Z,1.10
2022-09-21T13:02:19.600Z,1.23
2022-09-21T13:03:36.348Z,1.20
2022-09-21T13:04:51.366Z,0.80
2022-09-21T13:06:18.235Z,1.30
2022-09-21T13:07:48.322Z,1.33
2022-09-21T13:09:01.270Z,0.83
2022-09-21T13:10:15.587Z,0.80
2022-09-21T13:11:27.434Z,4.93
2022-09-21T13:12:41.467Z,1.00
2022-09-21T13:13:58.948Z,24.60
2022-09-21T13:15:24.254Z,2.97
2022-09-21T13:16:36.938Z,5.97
2022-09-21T13:17:57.917Z,2.63
2022-09-21T13:19:22.713Z,6.03
2022-09-21T13:20:39.477Z,2.00
2022-09-21T13:22:15.985Z,1.23
2022-09-21T13:23:39.292Z,1.10
2022-09-21T13:25:10.082Z,1.10
2022-09-21T13:26:34.694Z,1.00
2022-09-21T13:28:01.547Z,0.90
2022-09-21T13:29:25.253Z,0.93
2022-09-21T13:30:40.499Z,1.50
2022-09-21T13:32:02.405Z,1.10
2022-09-21T13:33:19.826Z,1.40
2022-09-21T13:34:31.309Z,1.07
2022-09-21T13:35:53.923Z,0.87
2022-09-21T13:37:11.433Z,1.40
2022-09-21T13:38:41.196Z,1.37
2022-09-21T13:40:01.879Z,0.67
2022-09-21T13:41:19.565Z,0.87
2022-09-21T13:42:34.478Z,0.80
2022-09-21T13:44:01.147Z,1.17
2022-09-21T13:45:16.253Z,1.00
2022-09-21T13:46:36.602Z,0.83
2022-09-21T13:47:50.841Z,0.97
2022-09-21T13:49:02.500Z,0.80
2022-09-21T13:50:23.224Z,1.70
2022-09-21T13:51:35.090Z,1.00
2022-09-21T13:52:52.179Z,1.33
2022-09-21T13:54:03.976Z,0.73
2022-09-21T13:55:23.522Z,1.07
2022-09-21T13:56:35.070Z,1.33
2022-09-21T13:57:48.275Z,1.23
2022-09-21T13:58:59.930Z,1.20
2022-09-21T14:00:12.094Z,2.07
2022-09-21T14:01:49.696Z,0.93
2022-09-21T14:03:04.471Z,0.80
2022-09-21T14:04:33.333Z,3.40
2022-09-21T14:05:50.620Z,1.37
2022-09-21T14:07:04.146Z,0.90
2022-09-21T14:08:15.769Z,1.23
2022-09-21T14:09:29.181Z,1.80
2022-09-21T14:10:42.054Z,1.33
2022-09-21T14:12:07.386Z,1.23
2022-09-21T14:13:27.513Z,1.93
2022-09-21T14:14:39.978Z,1.63
2022-09-21T14:15:51.438Z,1.00
2022-09-21T14:17:04.781Z,1.50
2022-09-21T14:18:18.898Z,1.60
2022-09-21T14:19:30.865Z,3.83
2022-09-21T14:21:04.070Z,1.57
2022-09-21T14:22:16.563Z,2.57
2022-09-21T14:23:29.038Z,5.77
2022-09-21T14:24:42.849Z,3.10
2022-09-21T14:26:14.352Z,2.67
2022-09-21T14:27:45.446Z,1.23
2022-09-21T14:28:58.254Z,1.50
2022-09-21T14:30:27.484Z,1.27
2022-09-21T14:31:39.591Z,20.57
2022-09-21T14:33:03.094Z,287.97
2022-09-21T14:34:23.230Z,150.37
2022-09-21T14:35:38.084Z,260.70
2022-09-21T14:36:50.812Z,138.13
2022-09-21T14:38:14.688Z,121.40
2022-09-21T14:39:30.869Z,193.20
2022-09-21T14:40:47.195Z,112.03
2022-09-21T14:42:01.254Z,83.00
2022-09-21T14:43:15.648Z,29.77
2022-09-21T14:44:30.939Z,11.10
2022-09-21T14:45:55.871Z,22.63
2022-09-21T14:47:17.657Z,12.33
2022-09-21T14:48:35.335Z,22.73
2022-09-21T14:50:02.899Z,20.47
2022-09-21T14:51:40.616Z,16.83
2022-09-21T14:53:07.327Z,9.77
2022-09-21T14:54:21.755Z,7.20
2022-09-21T14:55:43.803Z,13.70
2022-09-21T14:56:58.373Z,11.63
2022-09-21T14:58:09.798Z,6.07
2022-09-21T15:00:43.352Z,4.40
2022-09-21T15:02:03.602Z,5.70
2022-09-21T15:03:26.275Z,4.57
2022-09-21T15:04:56.531Z,5.53
2022-09-21T15:06:27.899Z,4.23
2022-09-21T15:08:16.797Z,4.03
2022-09-21T15:09:57.204Z,5.33
2022-09-21T15:11:31.952Z,9.53
2022-09-21T15:12:52.370Z,10.03
2022-09-21T15:14:22.304Z,9.67
2022-09-21T15:15:41.439Z,7.57
2022-09-21T15:16:53.029Z,5.17
2022-09-21T15:18:17.947Z,3.90
2022-09-21T15:19:30.092Z,4.33
2022-09-21T15:20:42.550Z,5.67
2022-09-21T15:22:12.058Z,8.77
2022-09-21T15:23:24.120Z,6.00
2022-09-21T15:24:35.590Z,4.53
2022-09-21T15:25:58.816Z,4.50
2022-09-21T15:27:16.821Z,3.00
2022-09-21T15:29:05.109Z,1.93
2022-09-21T15:30:19.226Z,1.77
2022-09-21T15:31:34.695Z,1.67
2022-09-21T15:32:47.414Z,1.47
2022-09-21T15:33:58.885Z,1.80
2022-09-21T15:35:19.795Z,1.43
2022-09-21T15:36:31.723Z,2.90
2022-09-21T15:37:45.757Z,3.30
2022-09-21T15:38:59.595Z,2.17
2022-09-21T15:40:30.138Z,1.03
2022-09-21T15:41:41.686Z,1.10
2022-09-21T15:43:25.606Z,1.30
2022-09-21T15:44:38.425Z,1.00
2022-09-21T15:46:01.245Z,0.90
2022-09-21T15:47:13.043Z,1.20
2022-09-21T15:48:42.555Z,1.20
2022-09-21T15:49:56.185Z,1.20
2022-09-21T15:51:24.709Z,1.97
2022-09-21T15:52:43.205Z,10.67
2022-09-21T15:54:01.653Z,2.37
2022-09-21T15:55:21.565Z,133.30
2022-09-21T15:56:36.372Z,169.80
2022-09-21T15:57:49.003Z,85.33
2022-09-21T15:59:08.644Z,89.90
2022-09-21T16:00:22.215Z,18.27
2022-09-21T16:01:38.810Z,6.47
2022-09-21T16:03:04.442Z,5.33
2022-09-21T16:04:27.344Z,8.67
2022-09-21T16:05:44.153Z,4.97
2022-09-21T16:07:06.799Z,2.50
2022-09-21T16:08:26.422Z,1.60
2022-09-21T16:09:38.447Z,43.90
2022-09-21T16:10:50.312Z,44.37
2022-09-21T16:12:21.667Z,20.80
2022-09-21T16:13:51.541Z,56.93
2022-09-21T16:15:21.589Z,149.07
2022-09-21T16:16:33.368Z,155.50
2022-09-21T16:18:01.999Z,27.00
2022-09-21T16:19:13.508Z,11.77
2022-09-21T16:20:36.871Z,13.17
2022-09-21T16:21:48.580Z,5.80
2022-09-21T16:23:26.769Z,2.73
2022-09-21T16:24:44.214Z,2.20
2022-09-21T16:25:58.508Z,1.63
2022-09-21T16:27:15.563Z,1.40
2022-09-21T16:28:35.849Z,1.40
2022-09-21T16:29:48.665Z,1.50
2022-09-21T16:31:00.357Z,1.13
2022-09-21T16:32:32.137Z,2.60
2022-09-21T16:33:57.023Z,2.80
2022-09-21T16:35:20.639Z,3.20
2022-09-21T16:36:37.982Z,3.67
2022-09-21T16:37:50.178Z,4.40
2022-09-21T16:39:06.184Z,5.77
2022-09-21T16:40:18.869Z,6.68
2022-09-21T16:41:41.712Z,6.43
2022-09-21T16:42:53.696Z,3.20
2022-09-21T16:44:05.282Z,2.20
2022-09-21T16:45:24.988Z,1.95
2022-09-21T16:46:36.688Z,2.05
2022-09-21T16:47:48.440Z,2.00
2022-09-21T16:49:00.784Z,1.90
2022-09-21T16:50:12.674Z,1.98
2022-09-21T16:51:26.386Z,2.30
2022-09-21T16:52:37.866Z,3.67
2022-09-21T16:53:49.486Z,3.20
2022-09-21T16:55:01.225Z,3.67
2022-09-21T16:56:14.234Z,3.53
2022-09-21T16:57:26.346Z,3.20
2022-09-21T16:58:37.825Z,12.23